LFPO/ORY METAR and TAF weather

Enter ICAO airport designator
Station Type Date Time Source
LFPO METAR 2018/12/19 10:00 UTC NOAA

LFPO 191000Z 20009KT 170V230 9999 BKN010 BKN017 09/07 Q1013 NOSIG


Station Type Date Time Source
LFPO Decoded METAR 2018/12/19 10:00 UTC NOAA

Paris-Orly, France (LFPO) 48-44N 002-24E 96M
Dec 19, 2018 - 05:00 AM EST / 2018.12.19 1000 UTC
Wind: from the SSW (200 degrees) at 10 MPH (9 KT) (direction variable):0
Visibility: greater than 7 mile(s):0
Sky conditions: mostly cloudy
Temperature: 48 F (9 C)
Dew Point: 44 F (7 C)
Relative Humidity: 87%
Pressure (altimeter): 29.91 in. Hg (1013 hPa)
ob: LFPO 191000Z 20009KT 170V230 9999 BKN010 BKN017 09/07 Q1013 NOSIG
cycle: 10

Station Type Date Time Source
LFPO TAF 2018/12/19 06:23 UTC NOAA

TAF LFPO 190500Z 1906/2012 20010KT 9999 BKN023
TEMPO 1906/1910 BKN008 PROB30
TEMPO 1906/1910 -SHRA BKN012 SCT020TCU
TEMPO 1917/2005 -SHRA BKN016 FEW020CB PROB40
TEMPO 1917/2005 20015G25KT 4000 SHRA BKN012 SCT018CB
TEMPO 2006/2012 20015G25KT BKN007


Example: see airport list